Amsterdam, MO (64723)

11:44 AM CDT on October 02, 2014 (GMT -0500)
KMOAMSTE2 | Change Station
CLOSE
Current Station
Personal Weather Station
Location: Amsterdam, MO
Elevation: 906 ft
Nearby Weather Stations
Active Advisory: Flood Warning, Flash Flood Watch Active Notice: Record Report

Elev 906 ft 38.36 °N, 94.61 °W | Updated 2 seconds ago

Mostly Cloudy
Mostly Cloudy
69.1 °F
Feels Like 69.1 °F
N
2.7
Wind Variable Wind from SSE
Gusts 4.3 mph

Today
High -- | Low -- °F
--% Chance of Precip.
Yesterday
High -- | Low -- °F
Precip. -- in
7:14 AM 6:59 PM
First Quarter, 60% visible
Pressure 29.74 in
Visibility 8.0 miles
Clouds Mostly Cloudy 1700 ft
Mostly Cloudy 2600 ft
Overcast 3600 ft
Dew Point 64 °F
Humidity 85%
Rainfall 0.46 in
Snow Depth Not available.
UV 2 out of 12
Pollen .50 out of 12
Air Quality Not available.
Flu Activity Not available.
SPECI KOJC 021639Z 13003KT 8SM VCTS BKN017 BKN026 OVC036 20/19 A2974 RMK AO2 LTG DSNT ALQDS RAE10 TSE21 P0004 T02000194

More Conditions Fewer Conditions

Pressure 29.74 in
Visibility 8.0 miles
Clouds Mostly Cloudy 1700 ft
Mostly Cloudy 2600 ft
Overcast 3600 ft
Dew Point 64 °F
Humidity 85%
Rainfall 0.46 in
Snow Depth Not available.
UV 2 out of 12
Pollen .50 out of 12
Air Quality Not available.
Flu Activity Not available.
SPECI KOJC 021639Z 13003KT 8SM VCTS BKN017 BKN026 OVC036 20/19 A2974 RMK AO2 LTG DSNT ALQDS RAE10 TSE21 P0004 T02000194

More Conditions Fewer Conditions

10-Day Weather Forecast

Almanac

Astronomy

Oct. 02, 2014 Rise Set
Actual Time 7:14 AM CDT 6:59 PM CDT
Civil Twilight 6:48 AM CDT 7:25 PM CDT
Nautical Twilight 6:17 AM CDT 7:56 PM CDT
Astronomical Twilight 5:46 AM CDT 8:27 PM CDT
Moon 3:02 PM CDT 12:37 AM CDT
Length of Visible Light 12h 37m
Length of Day
11h 44m
Tomorrow will be 2m 26s shorter.
First Quarter, 60% of the Moon is Illuminated
Today
First Quarter
Oct 8
Full
Oct 15
Last Quarter
Oct 23
New
Oct 30
First Quarter

Today's Extremes

State Highs State Lows

Community

WunderPhotos

Upload Photos

1,758,294 photos uploaded!

WunderBlogs® & News

Nearby

Snow Depth

Station Depth Elevation
No new snow has been reported.

Earthquake Activity

City Distance Mag. Time & Date
Parsons, Kansas 82 miles 3.0 7:33 PM CDT
2014-09-30
Minimum magnitude displayed is 2.5.

Coastal Water Temperatures

Place Temperature
No Stations Reporting

Nearby Weather Stations